createdAt,value
2022-08-22T00:00:50.522Z,0.00
2022-08-22T00:01:51.549Z,0.00
2022-08-22T00:02:42.144Z,0.00
2022-08-22T00:02:52.802Z,0.00
2022-08-22T00:02:57.073Z,0.00
2022-08-22T00:02:57.280Z,0.00
2022-08-22T00:03:15.954Z,0.00
2022-08-22T00:03:51.507Z,0.00
2022-08-22T00:04:51.250Z,0.00
2022-08-22T00:05:50.448Z,0.00
2022-08-22T00:06:50.261Z,0.00
2022-08-22T00:07:51.220Z,0.00
2022-08-22T00:08:51.225Z,0.00
2022-08-22T00:09:50.208Z,0.00
2022-08-22T00:10:50.185Z,0.00
2022-08-22T00:11:50.163Z,0.00
2022-08-22T00:12:57.389Z,0.00
2022-08-22T00:13:52.685Z,0.00
2022-08-22T00:14:51.182Z,0.00
2022-08-22T00:15:50.135Z,0.00
2022-08-22T00:16:50.115Z,0.00
2022-08-22T00:17:50.280Z,0.00
2022-08-22T00:18:57.323Z,0.00
2022-08-22T00:19:57.226Z,0.00
2022-08-22T00:20:50.095Z,0.00
2022-08-22T00:21:50.075Z,0.00
2022-08-22T00:22:51.085Z,0.00
2022-08-22T00:23:51.263Z,0.00
2022-08-22T00:24:50.260Z,0.00
2022-08-22T00:25:50.051Z,0.00
2022-08-22T00:26:51.248Z,0.00
2022-08-22T00:27:53.297Z,0.00
2022-08-22T00:28:49.985Z,0.00
2022-08-22T00:29:49.974Z,0.00
2022-08-22T00:31:05.383Z,0.00
2022-08-22T00:31:50.001Z,0.00
2022-08-22T00:32:50.199Z,0.00
2022-08-22T00:33:49.962Z,0.00
2022-08-22T00:34:49.936Z,0.00
2022-08-22T00:35:52.950Z,0.00
2022-08-22T00:36:49.923Z,0.00
2022-08-22T00:37:50.904Z,0.00
2022-08-22T00:39:05.369Z,0.00
2022-08-22T00:40:10.897Z,0.00
2022-08-22T00:41:10.854Z,0.00
2022-08-22T00:41:50.096Z,0.00
2022-08-22T00:42:50.098Z,0.00
2022-08-22T00:43:50.082Z,0.00
2022-08-22T00:44:50.071Z,0.00
2022-08-22T00:45:49.795Z,0.00
2022-08-22T00:46:50.838Z,0.00
2022-08-22T00:47:49.813Z,0.00
2022-08-22T00:48:57.216Z,0.00
2022-08-22T00:49:50.806Z,0.00
2022-08-22T00:50:50.784Z,0.00
2022-08-22T00:51:53.025Z,0.00
2022-08-22T00:52:49.977Z,0.00
2022-08-22T00:53:49.982Z,0.00
2022-08-22T00:54:49.966Z,0.00
2022-08-22T00:55:49.927Z,0.00
2022-08-22T00:56:50.942Z,0.00
2022-08-22T00:57:50.696Z,0.00
2022-08-22T00:58:49.710Z,0.00
2022-08-22T00:59:49.652Z,0.00
2022-08-22T01:00:50.924Z,0.00
2022-08-22T01:01:49.645Z,0.00
2022-08-22T01:02:52.548Z,0.00
2022-08-22T01:03:49.883Z,0.00
2022-08-22T01:04:49.840Z,0.00
2022-08-22T01:05:49.841Z,0.00
2022-08-22T01:06:50.638Z,0.00
2022-08-22T01:07:50.600Z,0.00
2022-08-22T01:08:57.062Z,0.00
2022-08-22T01:09:49.789Z,0.00
2022-08-22T01:10:49.780Z,0.00
2022-08-22T01:11:49.527Z,0.00
2022-08-22T01:12:50.561Z,0.00
2022-08-22T01:13:50.763Z,0.00
2022-08-22T01:14:49.538Z,0.00
2022-08-22T01:15:49.511Z,0.00
2022-08-22T01:16:49.476Z,0.00
2022-08-22T01:17:56.744Z,0.00
2022-08-22T01:18:52.506Z,0.00
2022-08-22T01:19:49.481Z,0.00
2022-08-22T01:20:49.664Z,0.00
2022-08-22T01:21:49.681Z,0.00
2022-08-22T01:22:52.464Z,0.00
2022-08-22T01:23:52.659Z,0.00
2022-08-22T01:24:49.414Z,0.00
2022-08-22T01:25:50.898Z,0.00
2022-08-22T01:26:49.402Z,0.00
2022-08-22T01:27:49.857Z,0.00
2022-08-22T01:28:49.357Z,0.00
2022-08-22T01:29:49.586Z,0.00
2022-08-22T01:30:49.360Z,0.00
2022-08-22T01:31:56.404Z,0.00
2022-08-22T01:32:50.348Z,0.00
2022-08-22T01:33:50.536Z,0.00
2022-08-22T01:35:04.813Z,0.00
2022-08-22T01:35:49.531Z,0.00
2022-08-22T01:36:49.302Z,0.00
2022-08-22T01:37:52.534Z,0.00
2022-08-22T01:38:49.494Z,0.00
2022-08-22T01:40:04.684Z,0.00
2022-08-22T01:40:53.785Z,0.00
2022-08-22T01:41:50.456Z,0.00
2022-08-22T01:42:49.213Z,0.00
2022-08-22T01:43:59.684Z,0.00
2022-08-22T01:44:51.200Z,0.00
2022-08-22T01:45:50.404Z,0.00
2022-08-22T01:46:49.188Z,0.00
2022-08-22T01:47:53.707Z,0.00
2022-08-22T01:48:52.416Z,0.00
2022-08-22T01:49:49.395Z,0.00
2022-08-22T01:50:50.168Z,0.00
2022-08-22T01:51:49.381Z,0.00
2022-08-22T01:52:50.345Z,0.00
2022-08-22T01:53:49.109Z,0.00
2022-08-22T01:54:49.088Z,0.00
2022-08-22T01:55:56.389Z,0.00
2022-08-22T01:56:49.069Z,0.00
2022-08-22T01:57:50.074Z,0.00
2022-08-22T01:58:56.358Z,0.00
2022-08-22T01:59:50.499Z,0.00
2022-08-22T02:00:49.085Z,0.00
2022-08-22T02:01:49.260Z,0.00
2022-08-22T02:03:09.994Z,0.00
2022-08-22T02:03:50.013Z,0.00
2022-08-22T02:04:48.981Z,0.00
2022-08-22T02:05:51.995Z,0.00
2022-08-22T02:06:51.994Z,0.00
2022-08-22T02:07:48.987Z,0.00
2022-08-22T02:08:49.932Z,0.00
2022-08-22T02:09:48.911Z,0.00
2022-08-22T02:10:49.148Z,0.00
2022-08-22T02:11:49.137Z,0.00
2022-08-22T02:12:48.900Z,0.00
2022-08-22T02:13:48.884Z,0.00
2022-08-22T02:14:56.081Z,0.00
2022-08-22T02:15:48.849Z,0.00
2022-08-22T02:16:50.102Z,0.00
2022-08-22T02:17:49.103Z,0.00
2022-08-22T02:19:10.079Z,0.00
2022-08-22T02:19:48.825Z,0.00
2022-08-22T02:20:52.076Z,0.00
2022-08-22T02:21:48.792Z,0.00
2022-08-22T02:22:48.797Z,0.00
2022-08-22T02:23:49.040Z,0.00
2022-08-22T02:24:50.011Z,0.00
2022-08-22T02:25:49.774Z,0.00
2022-08-22T02:26:49.995Z,0.00
2022-08-22T02:27:49.792Z,0.00
2022-08-22T02:28:56.547Z,0.00
2022-08-22T02:29:50.745Z,0.00
2022-08-22T02:30:51.744Z,0.00
2022-08-22T02:31:48.691Z,0.00
2022-08-22T02:32:55.878Z,0.00
2022-08-22T02:33:48.912Z,0.00
2022-08-22T02:35:04.121Z,0.00
2022-08-22T02:35:51.932Z,0.00
2022-08-22T02:36:48.632Z,0.00
2022-08-22T02:37:49.888Z,0.00
2022-08-22T02:38:48.624Z,0.00
2022-08-22T02:39:49.700Z,0.00
2022-08-22T02:40:48.803Z,0.00
2022-08-22T02:41:48.563Z,0.00
2022-08-22T02:42:55.668Z,0.00
2022-08-22T02:43:49.592Z,0.00
2022-08-22T02:44:48.564Z,0.00
2022-08-22T02:45:49.786Z,0.00
2022-08-22T02:46:48.779Z,0.00
2022-08-22T02:47:51.574Z,0.00
2022-08-22T02:48:49.756Z,0.00
2022-08-22T02:49:48.757Z,0.00
2022-08-22T02:51:04.074Z,0.00
2022-08-22T02:51:51.537Z,0.00
2022-08-22T02:52:48.463Z,0.00
2022-08-22T02:54:09.457Z,0.00
2022-08-22T02:54:48.460Z,0.00
2022-08-22T02:55:48.446Z,0.00
2022-08-22T02:56:51.484Z,0.00
2022-08-22T02:57:48.420Z,0.00
2022-08-22T02:58:59.330Z,0.00
2022-08-22T02:59:48.650Z,0.00
2022-08-22T03:00:48.418Z,0.00
2022-08-22T03:01:51.409Z,0.00
2022-08-22T03:03:09.588Z,0.00
2022-08-22T03:03:48.581Z,0.00
2022-08-22T03:05:04.008Z,0.00
2022-08-22T03:05:48.634Z,0.00
2022-08-22T03:06:51.612Z,0.00
2022-08-22T03:07:48.317Z,0.00
2022-08-22T03:08:51.067Z,0.00
2022-08-22T03:09:51.567Z,0.00
2022-08-22T03:10:48.540Z,0.00
2022-08-22T03:11:49.268Z,0.00
2022-08-22T03:12:49.269Z,0.00
2022-08-22T03:13:51.473Z,0.00
2022-08-22T03:14:48.231Z,0.00
2022-08-22T03:15:49.356Z,0.00
2022-08-22T03:17:03.641Z,0.00
2022-08-22T03:17:48.429Z,0.00
2022-08-22T03:18:48.194Z,0.00
2022-08-22T03:19:48.435Z,0.00
2022-08-22T03:20:48.435Z,0.00
2022-08-22T03:21:48.418Z,0.00
2022-08-22T03:22:49.160Z,0.00
2022-08-22T03:23:55.265Z,0.00
2022-08-22T03:24:51.376Z,0.00
2022-08-22T03:25:48.338Z,0.00
2022-08-22T03:26:48.152Z,0.00
2022-08-22T03:27:49.991Z,0.00
2022-08-22T03:28:59.072Z,0.00
2022-08-22T03:29:52.127Z,0.00
2022-08-22T03:30:48.282Z,0.00
2022-08-22T03:31:55.563Z,0.00
2022-08-22T03:32:49.311Z,0.00
2022-08-22T03:33:48.254Z,0.00
2022-08-22T03:34:48.020Z,0.00
2022-08-22T03:35:51.035Z,0.00
2022-08-22T03:36:48.315Z,0.00
2022-08-22T03:37:48.001Z,0.00
2022-08-22T03:39:17.087Z,0.00
2022-08-22T03:39:49.014Z,0.00
2022-08-22T03:40:48.174Z,0.00
2022-08-22T03:41:55.070Z,0.00
2022-08-22T03:42:47.957Z,0.00
2022-08-22T03:43:55.139Z,0.00
2022-08-22T03:44:55.263Z,0.00
2022-08-22T03:45:47.903Z,0.00
2022-08-22T03:46:51.511Z,0.00
2022-08-22T03:47:48.131Z,0.00
2022-08-22T03:48:47.865Z,0.00
2022-08-22T03:49:47.905Z,0.00
2022-08-22T03:50:47.853Z,0.00
2022-08-22T03:51:48.857Z,0.00
2022-08-22T03:52:49.098Z,0.00
2022-08-22T03:53:47.829Z,0.00
2022-08-22T03:55:10.045Z,0.00
2022-08-22T03:56:03.194Z,0.00
2022-08-22T03:56:47.816Z,0.00
2022-08-22T03:57:48.787Z,0.00
2022-08-22T03:58:47.796Z,0.00
2022-08-22T03:59:51.035Z,0.00
2022-08-22T04:00:51.029Z,0.00
2022-08-22T04:01:48.783Z,0.00
2022-08-22T04:02:47.714Z,0.00
2022-08-22T04:03:47.976Z,0.00
2022-08-22T04:04:50.972Z,0.00
2022-08-22T04:05:48.732Z,0.00
2022-08-22T04:06:48.702Z,0.00
2022-08-22T04:08:03.124Z,0.00
2022-08-22T04:08:47.661Z,0.00
2022-08-22T04:09:48.117Z,0.00
2022-08-22T04:10:50.920Z,0.00
2022-08-22T04:11:54.729Z,0.00
2022-08-22T04:12:47.868Z,0.00
2022-08-22T04:13:47.617Z,0.00
2022-08-22T04:14:47.665Z,0.00
2022-08-22T04:15:47.605Z,0.00
2022-08-22T04:16:48.260Z,0.00
2022-08-22T04:17:47.617Z,0.00
2022-08-22T04:18:47.557Z,0.00
2022-08-22T04:19:47.573Z,0.00
2022-08-22T04:20:47.772Z,0.00
2022-08-22T04:21:48.781Z,0.00
2022-08-22T04:22:47.524Z,0.00
2022-08-22T04:23:48.510Z,0.00
2022-08-22T04:24:52.070Z,0.00
2022-08-22T04:25:48.493Z,0.00
2022-08-22T04:26:48.471Z,0.00
2022-08-22T04:27:47.708Z,0.00
2022-08-22T04:28:47.680Z,0.00
2022-08-22T04:29:47.460Z,0.00
2022-08-22T04:30:47.462Z,0.00
2022-08-22T04:31:47.662Z,0.00
2022-08-22T04:32:54.711Z,0.00
2022-08-22T04:33:48.637Z,0.00
2022-08-22T04:34:48.633Z,0.00
2022-08-22T04:35:47.381Z,0.00
2022-08-22T04:36:47.406Z,5.62
2022-08-22T04:37:47.411Z,5.62
2022-08-22T04:38:50.391Z,5.62
2022-08-22T04:39:54.652Z,5.62
2022-08-22T04:40:47.312Z,5.62
2022-08-22T04:41:47.560Z,5.62
2022-08-22T04:42:47.535Z,5.62
2022-08-22T04:43:50.598Z,5.62
2022-08-22T04:44:47.282Z,5.62
2022-08-22T04:45:48.315Z,5.62
2022-08-22T04:46:47.500Z,5.62
2022-08-22T04:47:47.268Z,5.62
2022-08-22T04:48:48.270Z,5.62
2022-08-22T04:49:50.489Z,5.62
2022-08-22T04:50:48.238Z,5.62
2022-08-22T04:51:47.224Z,5.62
2022-08-22T04:52:47.214Z,11.25
2022-08-22T04:53:47.196Z,11.25
2022-08-22T04:54:50.444Z,11.25
2022-08-22T04:55:47.167Z,11.25
2022-08-22T04:56:47.412Z,11.25
2022-08-22T04:57:47.166Z,11.25
2022-08-22T04:58:47.154Z,11.25
2022-08-22T04:59:48.158Z,11.25
2022-08-22T05:00:47.125Z,11.25
2022-08-22T05:01:47.394Z,11.25
2022-08-22T05:02:49.155Z,11.25
2022-08-22T05:03:47.323Z,11.25
2022-08-22T05:04:54.424Z,11.25
2022-08-22T05:05:47.097Z,11.25
2022-08-22T05:06:47.307Z,11.25
2022-08-22T05:07:47.314Z,16.88
2022-08-22T05:08:53.983Z,16.88
2022-08-22T05:09:47.030Z,16.88
2022-08-22T05:10:48.036Z,16.88
2022-08-22T05:11:47.009Z,16.88
2022-08-22T05:12:47.012Z,16.88
2022-08-22T05:13:46.976Z,16.88
2022-08-22T05:14:48.014Z,16.88
2022-08-22T05:15:47.990Z,16.88
2022-08-22T05:16:54.295Z,16.88
2022-08-22T05:17:50.025Z,16.88
2022-08-22T05:18:47.944Z,16.88
2022-08-22T05:19:47.164Z,16.88
2022-08-22T05:20:49.288Z,16.88
2022-08-22T05:21:46.934Z,16.88
2022-08-22T05:22:46.884Z,22.50
2022-08-22T05:23:46.909Z,22.50
2022-08-22T05:24:47.141Z,22.50
2022-08-22T05:25:49.869Z,22.50
2022-08-22T05:26:48.635Z,22.50
2022-08-22T05:27:46.877Z,22.50
2022-08-22T05:28:51.284Z,22.50
2022-08-22T05:29:48.833Z,22.50
2022-08-22T05:30:50.069Z,22.50
2022-08-22T05:31:48.040Z,22.50
2022-08-22T05:32:47.014Z,22.50
2022-08-22T05:33:46.790Z,22.50
2022-08-22T05:34:48.001Z,22.50
2022-08-22T05:35:53.437Z,22.50
2022-08-22T05:36:48.763Z,22.50
2022-08-22T05:37:47.985Z,22.50
2022-08-22T05:38:46.951Z,28.12
2022-08-22T05:39:46.791Z,28.12
2022-08-22T05:40:53.794Z,28.12
2022-08-22T05:41:46.913Z,28.12
2022-08-22T05:42:47.672Z,28.12
2022-08-22T05:43:46.902Z,28.12
2022-08-22T05:44:46.655Z,28.12
2022-08-22T05:45:46.636Z,28.12
2022-08-22T05:46:46.870Z,28.12
2022-08-22T05:47:53.887Z,28.12
2022-08-22T05:48:46.871Z,28.12
2022-08-22T05:49:46.613Z,28.12
2022-08-22T05:50:50.834Z,28.12
2022-08-22T05:51:46.825Z,28.12
2022-08-22T05:52:46.585Z,28.12
2022-08-22T05:53:46.796Z,28.12
2022-08-22T05:54:46.546Z,28.12
2022-08-22T05:55:46.567Z,33.75
2022-08-22T05:56:46.765Z,33.75
2022-08-22T05:57:46.526Z,33.75
2022-08-22T05:58:46.740Z,33.75
2022-08-22T05:59:46.740Z,33.75
2022-08-22T06:00:46.719Z,33.75
2022-08-22T06:01:46.559Z,33.75
2022-08-22T06:02:46.482Z,33.75
2022-08-22T06:03:46.449Z,33.75
2022-08-22T06:04:46.468Z,33.75
2022-08-22T06:05:46.460Z,33.75
2022-08-22T06:06:46.432Z,33.75
2022-08-22T06:07:46.443Z,33.75
2022-08-22T06:08:46.395Z,33.75
2022-08-22T06:09:46.572Z,33.75
2022-08-22T06:10:48.320Z,33.75
2022-08-22T06:11:51.650Z,33.75
2022-08-22T06:12:47.367Z,33.75
2022-08-22T06:13:47.502Z,39.38
2022-08-22T06:14:46.361Z,39.38
2022-08-22T06:15:47.228Z,39.38
2022-08-22T06:16:47.435Z,39.38
2022-08-22T06:17:46.528Z,39.38
2022-08-22T06:18:46.302Z,39.38
2022-08-22T06:19:46.272Z,39.38
2022-08-22T06:20:46.276Z,39.38
2022-08-22T06:21:47.267Z,39.38
2022-08-22T06:22:46.250Z,39.38
2022-08-22T06:23:46.473Z,39.38
2022-08-22T06:24:46.220Z,39.38
2022-08-22T06:25:46.240Z,39.38
2022-08-22T06:26:48.847Z,39.38
2022-08-22T06:27:46.195Z,39.38
2022-08-22T06:28:54.789Z,39.38
2022-08-22T06:29:50.181Z,39.38
2022-08-22T06:30:46.184Z,45.00
2022-08-22T06:31:46.150Z,45.00
2022-08-22T06:33:00.064Z,45.00
2022-08-22T06:33:47.133Z,45.00
2022-08-22T06:34:46.125Z,45.00
2022-08-22T06:35:46.149Z,45.00
2022-08-22T06:36:46.102Z,45.00
2022-08-22T06:37:46.099Z,45.00
2022-08-22T06:38:46.093Z,45.00
2022-08-22T06:39:47.109Z,45.00
2022-08-22T06:40:46.167Z,45.00
2022-08-22T06:41:46.051Z,45.00
2022-08-22T06:42:46.043Z,45.00
2022-08-22T06:43:46.023Z,45.00
2022-08-22T06:44:46.031Z,50.62
2022-08-22T06:45:47.012Z,50.62
2022-08-22T06:46:46.025Z,50.62
2022-08-22T06:47:49.356Z,50.62
2022-08-22T06:48:45.969Z,50.62
2022-08-22T06:49:46.002Z,50.62
2022-08-22T06:50:45.971Z,50.62
2022-08-22T06:51:45.989Z,50.62
2022-08-22T06:52:45.943Z,50.62
2022-08-22T06:53:47.726Z,50.62
2022-08-22T06:54:45.907Z,50.62
2022-08-22T06:55:45.913Z,50.62
2022-08-22T06:56:45.910Z,50.62
2022-08-22T06:57:45.878Z,50.62
2022-08-22T06:58:45.884Z,56.25
2022-08-22T06:59:45.866Z,56.25
2022-08-22T07:00:51.084Z,56.25
2022-08-22T07:01:46.938Z,56.25
2022-08-22T07:02:45.875Z,56.25
2022-08-22T07:03:45.838Z,56.25
2022-08-22T07:04:45.807Z,56.25
2022-08-22T07:05:45.804Z,56.25
2022-08-22T07:06:45.832Z,56.25
2022-08-22T07:07:45.785Z,56.25
2022-08-22T07:08:45.776Z,56.25
2022-08-22T07:09:45.765Z,61.88
2022-08-22T07:10:45.756Z,61.88
2022-08-22T07:11:45.857Z,61.88
2022-08-22T07:12:45.737Z,61.88
2022-08-22T07:13:45.796Z,61.88
2022-08-22T07:14:49.231Z,61.88
2022-08-22T07:15:45.688Z,61.88
2022-08-22T07:16:45.709Z,61.88
2022-08-22T07:17:45.901Z,61.88
2022-08-22T07:18:45.689Z,67.50
2022-08-22T07:19:45.883Z,67.50
2022-08-22T07:20:45.640Z,67.50
2022-08-22T07:21:45.964Z,67.50
2022-08-22T07:22:47.099Z,67.50
2022-08-22T07:23:46.126Z,67.50
2022-08-22T07:24:45.612Z,67.50
2022-08-22T07:25:45.589Z,67.50
2022-08-22T07:26:45.598Z,67.50
2022-08-22T07:27:45.589Z,67.50
2022-08-22T07:28:51.309Z,67.50
2022-08-22T07:29:46.593Z,67.50
2022-08-22T07:30:45.528Z,67.50
2022-08-22T07:31:45.533Z,67.50
2022-08-22T07:32:45.533Z,67.50
2022-08-22T07:33:48.569Z,67.50
2022-08-22T07:34:45.502Z,67.50
2022-08-22T07:35:53.153Z,67.50
2022-08-22T07:36:46.466Z,67.50
2022-08-22T07:37:45.465Z,73.12
2022-08-22T07:38:45.451Z,73.12
2022-08-22T07:39:45.489Z,73.12
2022-08-22T07:40:45.500Z,73.12
2022-08-22T07:41:45.424Z,73.12
2022-08-22T07:42:45.421Z,73.12
2022-08-22T07:43:45.400Z,73.12
2022-08-22T07:44:45.394Z,73.12
2022-08-22T07:45:45.362Z,73.12
2022-08-22T07:46:45.390Z,73.12
2022-08-22T07:47:49.541Z,73.12
2022-08-22T07:49:07.701Z,73.12
2022-08-22T07:49:49.713Z,73.12
2022-08-22T07:50:45.337Z,73.12
2022-08-22T07:51:45.536Z,73.12
2022-08-22T07:52:45.354Z,73.12
2022-08-22T07:53:45.417Z,73.12
2022-08-22T07:54:45.292Z,73.12
2022-08-22T07:55:49.636Z,73.12
2022-08-22T07:56:45.270Z,73.12
2022-08-22T07:57:45.547Z,78.75
2022-08-22T07:58:45.228Z,78.75
2022-08-22T07:59:45.218Z,78.75
2022-08-22T08:00:45.222Z,78.75
2022-08-22T08:01:45.773Z,78.75
2022-08-22T08:02:45.474Z,78.75
2022-08-22T08:03:45.174Z,84.38
2022-08-22T08:04:45.176Z,84.38
2022-08-22T08:05:46.458Z,84.38
2022-08-22T08:06:45.163Z,84.38
2022-08-22T08:07:45.155Z,84.38
2022-08-22T08:08:45.167Z,90.00
2022-08-22T08:09:45.118Z,90.00
2022-08-22T08:10:45.154Z,90.00
2022-08-22T08:11:45.093Z,90.00
2022-08-22T08:12:45.090Z,90.00
2022-08-22T08:13:46.178Z,90.00
2022-08-22T08:14:45.112Z,95.62
2022-08-22T08:15:45.061Z,95.62
2022-08-22T08:16:45.046Z,95.62
2022-08-22T08:17:45.075Z,95.62
2022-08-22T08:18:45.038Z,95.62
2022-08-22T08:19:45.019Z,101.25
2022-08-22T08:20:44.998Z,101.25
2022-08-22T08:21:44.979Z,101.25
2022-08-22T08:22:45.021Z,101.25
2022-08-22T08:23:44.978Z,101.25
2022-08-22T08:24:45.263Z,101.25
2022-08-22T08:25:45.630Z,101.25
2022-08-22T08:26:45.009Z,101.25
2022-08-22T08:27:44.934Z,101.25
2022-08-22T08:28:45.946Z,101.25
2022-08-22T08:29:44.907Z,101.25
2022-08-22T08:30:44.922Z,101.25
2022-08-22T08:31:45.150Z,101.25
2022-08-22T08:32:44.882Z,101.25
2022-08-22T08:33:44.872Z,101.25
2022-08-22T08:34:44.887Z,101.25
2022-08-22T08:36:03.464Z,101.25
2022-08-22T08:36:45.842Z,101.25
2022-08-22T08:37:44.825Z,101.25
2022-08-22T08:38:44.824Z,101.25
2022-08-22T08:39:44.916Z,106.88
2022-08-22T08:40:45.122Z,106.88
2022-08-22T08:41:44.764Z,101.25
2022-08-22T08:42:44.782Z,106.88
2022-08-22T08:43:44.762Z,106.88
2022-08-22T08:44:44.782Z,106.88
2022-08-22T08:45:44.754Z,106.88
2022-08-22T08:46:55.181Z,106.88
2022-08-22T08:47:45.724Z,106.88
2022-08-22T08:48:45.452Z,106.88
2022-08-22T08:49:44.692Z,106.88
2022-08-22T08:50:45.719Z,106.88
2022-08-22T08:51:44.680Z,106.88
2022-08-22T08:52:44.670Z,112.50
2022-08-22T08:53:44.647Z,112.50
2022-08-22T08:54:44.671Z,112.50
2022-08-22T08:55:44.643Z,112.50
2022-08-22T08:56:47.190Z,112.50
2022-08-22T08:57:45.309Z,112.50
2022-08-22T08:58:44.608Z,112.50
2022-08-22T08:59:44.863Z,112.50
2022-08-22T09:00:44.617Z,112.50
2022-08-22T09:01:44.609Z,112.50
2022-08-22T09:02:44.642Z,112.50
2022-08-22T09:03:44.534Z,112.50
2022-08-22T09:04:44.785Z,112.50
2022-08-22T09:05:44.548Z,112.50
2022-08-22T09:06:44.518Z,112.50
2022-08-22T09:07:45.520Z,112.50
2022-08-22T09:08:44.504Z,112.50
2022-08-22T09:09:44.488Z,112.50
2022-08-22T09:10:44.487Z,112.50
2022-08-22T09:11:44.513Z,112.50
2022-08-22T09:13:45.450Z,112.50
2022-08-22T09:14:44.551Z,112.50
2022-08-22T09:15:58.588Z,112.50
2022-08-22T09:16:49.046Z,118.12
2022-08-22T09:17:52.640Z,118.12
2022-08-22T09:18:44.394Z,118.12
2022-08-22T09:19:44.393Z,118.12
2022-08-22T09:20:44.364Z,118.12
2022-08-22T09:21:44.597Z,118.12
2022-08-22T09:22:50.577Z,118.12
2022-08-22T09:23:45.341Z,118.12
2022-08-22T09:24:44.323Z,118.12
2022-08-22T09:25:44.352Z,118.12
2022-08-22T09:26:44.543Z,118.12
2022-08-22T09:27:44.344Z,123.75
2022-08-22T09:28:44.638Z,123.75
2022-08-22T09:29:51.363Z,123.75
2022-08-22T09:30:45.272Z,123.75
2022-08-22T09:31:47.990Z,123.75
2022-08-22T09:32:45.245Z,129.38
2022-08-22T09:33:44.483Z,129.38
2022-08-22T09:34:44.226Z,129.38
2022-08-22T09:35:44.236Z,129.38
2022-08-22T09:36:45.214Z,129.38
2022-08-22T09:37:44.205Z,129.38
2022-08-22T09:38:48.037Z,129.38
2022-08-22T09:39:44.231Z,129.38
2022-08-22T09:40:16.478Z,112.50
2022-08-22T09:40:45.167Z,129.38
2022-08-22T09:41:44.155Z,129.38
2022-08-22T09:42:44.925Z,129.38
2022-08-22T09:43:48.328Z,129.38
2022-08-22T09:44:44.381Z,129.38
2022-08-22T09:45:44.103Z,129.38
2022-08-22T09:46:44.144Z,129.38
2022-08-22T09:47:44.079Z,129.38
2022-08-22T09:48:44.092Z,129.38
2022-08-22T09:49:44.117Z,135.00
2022-08-22T09:50:44.108Z,135.00
2022-08-22T09:51:44.292Z,135.00
2022-08-22T09:52:44.036Z,135.00
2022-08-22T09:53:44.028Z,135.00
2022-08-22T09:54:44.067Z,135.00
2022-08-22T09:55:44.018Z,135.00
2022-08-22T09:56:44.025Z,135.00
2022-08-22T09:57:43.978Z,135.00
2022-08-22T09:58:43.989Z,135.00
2022-08-22T09:59:44.031Z,135.00
2022-08-22T10:00:44.325Z,135.00
2022-08-22T10:01:44.013Z,140.62
2022-08-22T10:02:43.937Z,140.62
2022-08-22T10:03:43.925Z,140.62
2022-08-22T10:04:45.187Z,151.88
2022-08-22T10:05:44.919Z,168.75
2022-08-22T10:06:43.953Z,174.38
2022-08-22T10:07:43.877Z,180.00
2022-08-22T10:08:46.075Z,180.00
2022-08-22T10:09:43.869Z,174.38
2022-08-22T10:10:43.856Z,168.75
2022-08-22T10:11:43.868Z,168.75
2022-08-22T10:12:44.817Z,163.12
2022-08-22T10:13:43.808Z,163.12
2022-08-22T10:14:43.801Z,180.00
2022-08-22T10:15:44.803Z,191.25
2022-08-22T10:16:43.812Z,168.75
2022-08-22T10:17:43.767Z,146.25
2022-08-22T10:18:43.938Z,146.25
2022-08-22T10:19:44.760Z,146.25
2022-08-22T10:20:44.706Z,146.25
2022-08-22T10:21:43.730Z,140.62
2022-08-22T10:22:44.428Z,135.00
2022-08-22T10:23:43.714Z,135.00
2022-08-22T10:24:44.285Z,135.00
2022-08-22T10:25:43.685Z,129.38
2022-08-22T10:26:43.674Z,129.38
2022-08-22T10:27:43.695Z,129.38
2022-08-22T10:28:44.684Z,129.38
2022-08-22T10:29:43.905Z,129.38
2022-08-22T10:30:44.928Z,129.38
2022-08-22T10:31:58.786Z,129.38
2022-08-22T10:32:44.626Z,140.62
2022-08-22T10:33:44.321Z,135.00
2022-08-22T10:34:43.810Z,135.00
2022-08-22T10:35:43.605Z,146.25
2022-08-22T10:36:43.810Z,140.62
2022-08-22T10:37:46.135Z,140.62
2022-08-22T10:38:44.199Z,101.25
2022-08-22T10:39:46.866Z,101.25
2022-08-22T10:40:44.566Z,118.12
2022-08-22T10:41:45.489Z,106.88
2022-08-22T10:42:43.764Z,90.00
2022-08-22T10:43:43.768Z,90.00
2022-08-22T10:44:43.733Z,112.50
2022-08-22T10:45:46.571Z,135.00
2022-08-22T10:46:44.488Z,135.00
2022-08-22T10:47:43.479Z,101.25
2022-08-22T10:48:43.724Z,123.75
2022-08-22T10:49:46.765Z,180.00
2022-08-22T10:50:43.438Z,213.75
2022-08-22T10:51:50.760Z,174.38
2022-08-22T10:52:43.408Z,191.25
2022-08-22T10:53:43.441Z,196.88
2022-08-22T10:54:43.592Z,202.50
2022-08-22T10:55:50.650Z,208.12
2022-08-22T10:56:43.947Z,185.62
2022-08-22T10:57:43.390Z,163.12
2022-08-22T10:58:44.125Z,163.12
2022-08-22T10:59:43.586Z,151.88
2022-08-22T11:00:46.585Z,208.12
2022-08-22T11:01:47.442Z,180.00
2022-08-22T11:02:44.771Z,157.50
2022-08-22T11:03:43.514Z,174.38
2022-08-22T11:04:43.316Z,135.00
2022-08-22T11:05:43.280Z,140.62
2022-08-22T11:06:44.794Z,196.88
2022-08-22T11:07:46.712Z,157.50
2022-08-22T11:08:47.294Z,174.38
2022-08-22T11:09:43.459Z,180.00
2022-08-22T11:10:43.481Z,213.75
2022-08-22T11:11:43.436Z,225.00
2022-08-22T11:12:46.461Z,230.62
2022-08-22T11:13:58.909Z,230.62
2022-08-22T11:14:43.213Z,196.88
2022-08-22T11:16:04.525Z,196.88
2022-08-22T11:16:44.428Z,202.50
2022-08-22T11:17:53.882Z,208.12
2022-08-22T11:19:01.985Z,225.00
2022-08-22T11:19:44.763Z,236.25
2022-08-22T11:20:43.121Z,230.62
2022-08-22T11:21:43.128Z,219.38
2022-08-22T11:22:50.364Z,202.50
2022-08-22T11:23:51.294Z,191.25
2022-08-22T11:24:55.837Z,191.25
2022-08-22T11:25:44.315Z,191.25
2022-08-22T11:26:47.134Z,196.88
2022-08-22T11:27:58.585Z,202.50
2022-08-22T11:28:43.062Z,180.00
2022-08-22T11:29:44.209Z,151.88
2022-08-22T11:30:44.236Z,146.25
2022-08-22T11:31:47.204Z,140.62
2022-08-22T11:33:20.400Z,135.00
2022-08-22T11:33:46.773Z,146.25
2022-08-22T11:34:45.994Z,140.62
2022-08-22T11:35:43.030Z,129.38
2022-08-22T11:36:46.008Z,123.75
2022-08-22T11:37:44.066Z,123.75
2022-08-22T11:38:42.922Z,118.12
2022-08-22T11:39:43.008Z,118.12
2022-08-22T11:40:44.169Z,118.12
2022-08-22T11:41:43.148Z,118.12
2022-08-22T11:42:47.731Z,118.12
2022-08-22T11:43:46.920Z,118.12
2022-08-22T11:44:50.645Z,112.50
2022-08-22T11:45:45.131Z,78.75
2022-08-22T11:46:43.099Z,67.50
2022-08-22T11:47:43.104Z,73.12
2022-08-22T11:48:42.820Z,67.50
2022-08-22T11:49:43.819Z,67.50
2022-08-22T11:50:44.055Z,67.50
2022-08-22T11:51:46.033Z,67.50
2022-08-22T11:52:43.042Z,78.75
2022-08-22T11:53:44.078Z,84.38
2022-08-22T11:54:43.775Z,90.00
2022-08-22T11:55:46.015Z,129.38
2022-08-22T11:56:42.778Z,112.50
2022-08-22T11:57:44.321Z,140.62
2022-08-22T11:58:46.018Z,146.25
2022-08-22T11:59:43.725Z,151.88
2022-08-22T12:00:42.683Z,151.88
2022-08-22T12:01:42.739Z,151.88
2022-08-22T12:02:42.772Z,146.25
2022-08-22T12:03:42.685Z,157.50
2022-08-22T12:04:44.109Z,106.88
2022-08-22T12:05:42.645Z,106.88
2022-08-22T12:06:42.645Z,135.00
2022-08-22T12:07:46.184Z,135.00
2022-08-22T12:08:46.864Z,168.75
2022-08-22T12:09:42.613Z,146.25
2022-08-22T12:10:43.597Z,191.25
2022-08-22T12:11:42.589Z,191.25
2022-08-22T12:12:42.854Z,185.62
2022-08-22T12:13:43.598Z,174.38
2022-08-22T12:14:42.816Z,168.75
2022-08-22T12:15:42.542Z,151.88
2022-08-22T12:16:42.533Z,140.62
2022-08-22T12:17:55.203Z,129.38
2022-08-22T12:18:45.081Z,129.38
2022-08-22T12:20:14.718Z,135.00
2022-08-22T12:20:52.330Z,135.00
2022-08-22T12:21:42.483Z,129.38
2022-08-22T12:22:44.313Z,129.38
2022-08-22T12:23:49.722Z,135.00
2022-08-22T12:25:02.267Z,135.00
2022-08-22T12:25:44.557Z,129.38
2022-08-22T12:26:57.806Z,123.75
2022-08-22T12:27:48.225Z,118.12
2022-08-22T12:28:43.431Z,106.88
2022-08-22T12:29:44.872Z,106.88
2022-08-22T12:30:42.621Z,106.88
2022-08-22T12:31:45.427Z,112.50
2022-08-22T12:32:43.823Z,112.50
2022-08-22T12:33:42.374Z,112.50
2022-08-22T12:34:42.576Z,118.12
2022-08-22T12:35:42.334Z,123.75
2022-08-22T12:36:42.561Z,129.38
2022-08-22T12:37:50.334Z,135.00
2022-08-22T12:38:43.333Z,140.62
2022-08-22T12:39:42.371Z,135.00
2022-08-22T12:40:43.830Z,135.00
2022-08-22T12:41:46.611Z,135.00
2022-08-22T12:42:42.495Z,135.00
2022-08-22T12:43:42.868Z,140.62
2022-08-22T12:44:42.271Z,140.62
2022-08-22T12:45:43.286Z,146.25
2022-08-22T12:46:47.315Z,151.88
2022-08-22T12:47:46.270Z,163.12
2022-08-22T12:48:42.413Z,180.00
2022-08-22T12:49:42.435Z,191.25